Time;durP1;ratioP1;P1;durP2;ratioP2;P2;SDS_P1;SDS_P2;PMS_P1;PMS_P2;Temp;Humidity;BMP_temperature;BMP_pressure;BME280_temperature;BME280_humidity;BME280_pressure;Samples;Min_cycle;Max_cycle;Signal;HPM_P1;HPM_P2
2022/07/06 00:00:09;;;;;;;3.73;3.43;;;15.20;99.90;16.60;97141.00;;;;5036732;28;20201;-66
2022/07/06 00:02:58;;;;;;;5.17;4.77;;;15.20;99.90;16.40;97146.00;;;;5044153;28;20208;-66
2022/07/06 00:05:48;;;;;;;4.40;4.10;;;15.20;99.90;16.10;97135.00;;;;5043432;28;20291;-66
2022/07/06 00:08:37;;;;;;;4.40;4.10;;;15.20;99.90;16.20;97143.00;;;;5048372;28;20228;-66
2022/07/06 00:11:26;;;;;;;4.03;3.80;;;15.10;99.90;16.20;97141.00;;;;5041293;28;20224;-66
2022/07/06 00:14:15;;;;;;;3.80;3.60;;;15.00;99.90;16.00;97142.00;;;;5047333;28;20217;-66
2022/07/06 00:17:05;;;;;;;7.50;3.60;;;15.00;99.90;16.10;97143.00;;;;5048244;28;20228;-65
2022/07/06 00:19:53;;;;;;;4.30;4.00;;;15.00;99.90;16.20;97147.00;;;;5049449;28;20197;-66
2022/07/06 00:22:43;;;;;;;4.40;4.10;;;14.90;99.90;16.30;97146.00;;;;5051848;28;20211;-65
2022/07/06 00:25:32;;;;;;;4.13;3.83;;;14.90;99.90;16.20;97144.00;;;;5051212;28;20212;-66
2022/07/06 00:28:21;;;;;;;4.57;4.17;;;15.00;99.90;16.10;97147.00;;;;5046722;28;20223;-66
2022/07/06 00:31:10;;;;;;;4.10;3.80;;;14.90;99.90;15.60;97149.00;;;;5045144;28;20227;-66
2022/07/06 00:33:59;;;;;;;5.07;4.57;;;14.80;99.90;15.30;97151.00;;;;5051752;28;20598;-66
2022/07/06 00:36:48;;;;;;;4.90;4.60;;;14.70;99.90;15.40;97151.00;;;;5047573;28;20221;-66
2022/07/06 00:39:38;;;;;;;4.70;4.37;;;14.60;99.90;15.20;97148.00;;;;5043856;28;20208;-65
2022/07/06 00:42:27;;;;;;;4.47;4.03;;;14.50;99.90;15.40;97155.00;;;;5050003;28;20204;-65
2022/07/06 00:45:17;;;;;;;7.83;4.47;;;14.40;99.90;15.70;97151.00;;;;5052519;28;20251;-65
2022/07/06 00:48:06;;;;;;;4.40;4.10;;;14.40;99.90;15.70;97154.00;;;;5050198;28;20189;-65
2022/07/06 00:50:55;;;;;;;5.03;4.53;;;14.50;99.90;15.50;97155.00;;;;5051188;28;20213;-65
2022/07/06 00:53:44;;;;;;;4.87;4.43;;;14.50;99.90;15.40;97155.00;;;;5045266;28;20393;-66
2022/07/06 00:56:36;;;;;;;4.73;4.33;;;14.40;99.90;15.40;97166.00;;;;5047943;28;20220;-66
2022/07/06 00:59:26;;;;;;;5.20;4.50;;;14.40;99.90;15.40;97160.00;;;;5050134;28;20224;-65
2022/07/06 01:02:14;;;;;;;7.03;4.87;;;14.40;99.90;15.40;97160.00;;;;5051116;28;20208;-66
2022/07/06 01:05:06;;;;;;;5.03;4.60;;;14.30;99.90;15.50;97156.00;;;;5051219;28;20605;-66
2022/07/06 01:07:56;;;;;;;4.90;4.47;;;14.30;99.90;15.10;97165.00;;;;5050070;28;20255;-66
2022/07/06 01:10:45;;;;;;;4.50;4.20;;;14.20;99.90;15.00;97174.00;;;;5050516;28;20188;-66
2022/07/06 01:13:35;;;;;;;4.90;4.60;;;14.10;99.90;14.80;97172.00;;;;5049578;28;20299;-68
2022/07/06 01:16:24;;;;;;;6.87;4.87;;;14.00;99.90;15.20;97161.00;;;;5046692;28;20216;-68
2022/07/06 01:19:13;;;;;;;5.20;4.80;;;14.00;99.90;15.30;97181.00;;;;5051136;28;20722;-68
2022/07/06 01:22:04;;;;;;;5.23;4.83;;;14.00;99.90;14.70;97163.00;;;;5046689;28;20201;-68
2022/07/06 01:24:52;;;;;;;5.33;4.83;;;14.00;99.90;14.80;97177.00;;;;5043454;28;20228;-68
2022/07/06 01:27:43;;;;;;;11.00;4.67;;;13.90;99.90;15.00;97178.00;;;;5040145;28;20208;-66
2022/07/06 01:30:32;;;;;;;11.03;6.03;;;13.90;99.90;15.30;97166.00;;;;5035871;28;20571;-66
2022/07/06 01:33:21;;;;;;;5.43;4.90;;;13.90;99.90;15.50;97168.00;;;;5049691;28;20237;-66
2022/07/06 01:36:11;;;;;;;4.70;4.23;;;14.00;99.90;15.30;97167.00;;;;5050072;28;20232;-66
2022/07/06 01:39:01;;;;;;;6.23;4.13;;;14.10;99.90;15.00;97172.00;;;;5045018;28;20204;-66
2022/07/06 01:41:50;;;;;;;5.40;5.00;;;14.10;99.90;15.20;97170.00;;;;5050089;28;20197;-66
2022/07/06 01:44:38;;;;;;;5.00;4.53;;;14.00;99.90;15.30;97162.00;;;;5051376;28;20741;-66
2022/07/06 01:47:27;;;;;;;5.07;4.67;;;14.00;99.90;15.30;97168.00;;;;5040473;28;20203;-66
2022/07/06 01:50:16;;;;;;;5.43;4.93;;;14.00;99.90;15.40;97171.00;;;;5049636;28;20215;-66
2022/07/06 01:53:05;;;;;;;5.90;5.00;;;14.00;99.90;15.40;97169.00;;;;5049329;28;20207;-66
2022/07/06 01:55:55;;;;;;;4.73;4.33;;;14.10;99.90;15.20;97170.00;;;;5049286;28;20193;-66
2022/07/06 01:58:44;;;;;;;5.17;4.67;;;14.10;99.90;14.80;97179.00;;;;5045810;28;20213;-66
2022/07/06 02:01:33;;;;;;;4.77;4.30;;;14.00;99.90;14.60;97167.00;;;;5049767;28;20219;-66
2022/07/06 02:04:22;;;;;;;5.13;4.73;;;13.90;99.90;14.70;97173.00;;;;5049207;28;20220;-68
2022/07/06 02:07:11;;;;;;;6.63;4.60;;;13.80;99.90;14.40;97166.00;;;;5042374;28;20676;-65
2022/07/06 02:09:59;;;;;;;5.20;4.70;;;13.70;99.90;14.30;97169.00;;;;5040643;28;20204;-65
2022/07/06 02:12:49;;;;;;;5.77;5.37;;;13.60;99.90;14.40;97171.00;;;;5049552;28;20668;-65
2022/07/06 02:15:38;;;;;;;5.50;5.07;;;13.60;99.90;14.50;97175.00;;;;5045789;28;20204;-65
2022/07/06 02:18:27;;;;;;;5.77;5.27;;;13.50;99.90;14.40;97178.00;;;;5048689;28;20676;-65
2022/07/06 02:21:16;;;;;;;5.67;5.17;;;13.50;99.90;13.80;97168.00;;;;5045818;28;20224;-65
2022/07/06 02:24:06;;;;;;;5.73;5.30;;;13.40;99.90;14.20;97175.00;;;;5048511;28;20217;-66
2022/07/06 02:26:55;;;;;;;5.20;4.80;;;;;14.30;97182.00;;;;5042253;28;20201;-68
2022/07/06 02:29:45;;;;;;;5.50;5.00;;;13.30;99.90;14.60;97181.00;;;;5045824;28;20201;-64
2022/07/06 02:32:33;;;;;;;6.20;5.67;;;13.40;99.90;14.80;97190.00;;;;5038984;28;20216;-67
2022/07/06 02:35:22;;;;;;;5.97;5.57;;;13.40;99.90;14.90;97187.00;;;;5046447;28;20228;-66
2022/07/06 02:38:11;;;;;;;5.97;5.47;;;13.50;99.90;15.00;97187.00;;;;5048113;28;20224;-66
2022/07/06 02:41:00;;;;;;;6.80;6.10;;;13.50;99.90;14.80;97190.00;;;;5049877;28;20200;-67
2022/07/06 02:43:49;;;;;;;5.07;4.63;;;13.60;99.90;14.60;97180.00;;;;5061444;23;20250;-63
2022/07/06 02:46:39;;;;;;;6.20;5.43;;;13.50;99.90;14.50;97187.00;;;;5061552;28;20940;-63
2022/07/06 02:49:28;;;;;;;5.37;4.97;;;13.50;99.90;14.40;97183.00;;;;5065752;28;20234;-62
2022/07/06 02:52:17;;;;;;;6.17;5.23;;;13.50;99.90;14.30;97187.00;;;;5060526;28;20196;-63
2022/07/06 02:55:07;;;;;;;6.23;5.73;;;13.40;99.90;14.70;97183.00;;;;5062016;28;20231;-63
2022/07/06 02:57:56;;;;;;;10.90;5.77;;;13.50;99.90;15.00;97195.00;;;;5059730;28;20212;-63
2022/07/06 03:00:44;;;;;;;6.63;5.37;;;13.50;99.90;14.90;97190.00;;;;5055347;28;20200;-63
2022/07/06 03:03:35;;;;;;;7.43;4.53;;;13.50;99.90;14.80;97183.00;;;;5058698;28;20204;-63
2022/07/06 03:06:24;;;;;;;5.63;5.13;;;13.60;99.90;14.40;97183.00;;;;5062452;28;20254;-63
2022/07/06 03:09:13;;;;;;;7.37;5.30;;;13.50;99.90;13.90;97172.00;;;;5061776;28;20609;-62
2022/07/06 03:12:02;;;;;;;6.67;5.73;;;13.40;99.90;14.20;97180.00;;;;5056652;28;20196;-63
2022/07/06 03:14:50;;;;;;;5.83;5.03;;;13.30;99.90;13.70;97177.00;;;;5050261;28;20603;-62
2022/07/06 03:17:39;;;;;;;7.93;4.80;;;13.20;99.90;13.80;97167.00;;;;5054345;28;20235;-64
2022/07/06 03:20:30;;;;;;;4.97;4.67;;;13.10;99.90;13.60;97169.00;;;;5063285;28;20212;-63
2022/07/06 03:23:18;;;;;;;10.13;5.37;;;13.00;99.90;13.50;97177.00;;;;5048676;28;20208;-62
2022/07/06 03:26:07;;;;;;;5.77;5.27;;;13.00;99.90;13.40;97178.00;;;;5052447;28;20222;-61
2022/07/06 03:28:56;;;;;;;8.13;5.97;;;12.90;99.90;13.70;97175.00;;;;5061312;28;20691;-62
2022/07/06 03:31:45;;;;;;;6.60;5.17;;;12.90;99.90;13.90;97179.00;;;;5043797;28;20664;-63
2022/07/06 03:34:33;;;;;;;6.67;5.03;;;13.00;99.90;14.30;97178.00;;;;5056108;28;20223;-62
2022/07/06 03:37:24;;;;;;;6.23;5.73;;;13.10;99.90;14.60;97176.00;;;;5048014;28;20219;-63
2022/07/06 03:40:13;;;;;;;7.27;5.23;;;13.10;99.90;14.60;97181.00;;;;5050888;28;20196;-62
2022/07/06 03:43:02;;;;;;;5.30;4.60;;;13.20;99.90;14.80;97163.00;;;;5056038;28;20201;-63
2022/07/06 03:45:51;;;;;;;5.97;4.90;;;13.40;99.90;14.40;97172.00;;;;5061250;28;20596;-63
2022/07/06 03:48:40;;;;;;;5.67;5.17;;;13.40;99.90;13.90;97162.00;;;;5058717;28;20239;-63
2022/07/06 03:51:28;;;;;;;5.63;5.00;;;13.40;99.90;14.00;97170.00;;;;5061757;28;20200;-62
2022/07/06 03:54:19;;;;;;;5.63;5.23;;;13.30;99.90;14.20;97171.00;;;;5064997;28;20233;-62
2022/07/06 03:57:07;;;;;;;5.87;5.47;;;13.30;99.90;14.40;97161.00;;;;5059690;28;20593;-64
2022/07/06 03:59:57;;;;;;;5.23;4.80;;;13.30;99.90;14.20;97167.00;;;;5058329;28;20219;-63
2022/07/06 04:02:46;;;;;;;5.33;4.93;;;13.60;99.90;14.50;97168.00;;;;5063486;28;20212;-64
2022/07/06 04:05:35;;;;;;;5.17;4.77;;;13.40;99.90;14.40;97171.00;;;;5052173;28;20224;-64
2022/07/06 04:08:23;;;;;;;5.47;5.07;;;13.40;99.90;14.50;97163.00;;;;5051916;28;20217;-63
2022/07/06 04:11:14;;;;;;;6.73;5.47;;;13.50;99.90;14.50;97166.00;;;;5059418;28;20200;-63
2022/07/06 04:14:03;;;;;;;7.47;6.00;;;13.50;99.90;14.70;97165.00;;;;5057766;28;20220;-63
2022/07/06 04:16:51;;;;;;;5.77;5.33;;;13.50;99.90;14.70;97165.00;;;;5070747;28;20200;-63
2022/07/06 04:19:40;;;;;;;6.57;6.07;;;13.50;99.90;14.60;97167.00;;;;5061200;28;20359;-63
2022/07/06 04:22:29;;;;;;;6.10;5.60;;;13.60;99.90;14.60;97169.00;;;;5062605;28;20212;-63
2022/07/06 04:25:18;;;;;;;6.20;5.67;;;13.60;99.90;14.50;97157.00;;;;5056773;28;20227;-63
2022/07/06 04:28:08;;;;;;;8.97;5.53;;;13.50;99.90;14.50;97169.00;;;;5066332;28;20222;-62
2022/07/06 04:30:57;;;;;;;6.13;5.63;;;13.50;99.90;14.80;97173.00;;;;5059289;28;20214;-63
2022/07/06 04:33:46;;;;;;;6.17;5.33;;;13.50;99.90;14.80;97175.00;;;;5051531;28;20595;-63
2022/07/06 04:36:35;;;;;;;6.40;5.87;;;13.60;99.90;14.70;97171.00;;;;5050129;28;20717;-63
2022/07/06 04:39:23;;;;;;;6.17;5.73;;;13.60;99.90;14.60;97170.00;;;;5042390;28;20211;-63
2022/07/06 04:42:12;;;;;;;6.27;5.67;;;13.60;99.90;14.60;97167.00;;;;5051488;28;20216;-63
2022/07/06 04:45:02;;;;;;;5.93;5.33;;;13.60;99.90;14.80;97165.00;;;;5055845;28;20245;-63
2022/07/06 04:47:51;;;;;;;5.23;4.83;;;13.60;99.90;14.80;97174.00;;;;5055497;28;20221;-64
2022/07/06 04:50:40;;;;;;;7.47;6.20;;;13.60;99.90;14.80;97173.00;;;;5045540;28;20208;-63
2022/07/06 04:53:29;;;;;;;7.67;7.07;;;13.70;99.90;15.00;97183.00;;;;5048218;28;20208;-63
2022/07/06 04:56:17;;;;;;;5.33;4.73;;;13.80;99.90;15.10;97171.00;;;;5060870;28;20231;-63
2022/07/06 04:59:06;;;;;;;8.83;5.60;;;13.90;99.90;15.40;97172.00;;;;5061910;28;20683;-64
2022/07/06 05:01:56;;;;;;;7.13;4.77;;;14.00;99.90;15.20;97168.00;;;;5062430;28;20683;-62
2022/07/06 05:04:45;;;;;;;6.03;5.43;;;14.10;99.90;15.30;97174.00;;;;5065274;28;20776;-63
2022/07/06 05:07:39;;;;;;;5.73;5.30;;;14.10;99.90;15.50;97169.00;;;;5061459;28;20205;-62
2022/07/06 05:10:27;;;;;;;5.33;4.93;;;14.30;99.90;15.60;97175.00;;;;5069286;28;20519;-64
2022/07/06 05:13:16;;;;;;;4.90;4.60;;;14.40;99.90;15.90;97164.00;;;;5056971;28;20610;-63
2022/07/06 05:16:06;;;;;;;8.37;5.60;;;14.50;99.90;16.20;97165.00;;;;5065618;28;21129;-63
2022/07/06 05:18:56;;;;;;;5.60;5.10;;;14.70;99.90;16.40;97176.00;;;;5063165;28;20668;-63
2022/07/06 05:21:45;;;;;;;5.17;4.67;;;14.90;99.90;16.50;97161.00;;;;5062150;28;20207;-64
2022/07/06 05:24:34;;;;;;;6.97;5.33;;;15.10;99.90;16.50;97162.00;;;;5054305;28;20221;-63
2022/07/06 05:27:23;;;;;;;5.60;5.20;;;15.20;99.90;16.90;97170.00;;;;5058450;28;20281;-64
2022/07/06 05:30:12;;;;;;;6.60;5.80;;;15.40;99.90;17.30;97162.00;;;;5064306;28;20219;-63
2022/07/06 05:33:01;;;;;;;5.80;5.20;;;15.60;99.90;17.30;97155.00;;;;5063939;28;20209;-63
2022/07/06 05:35:51;;;;;;;5.70;5.20;;;15.80;99.90;17.50;97160.00;;;;5059607;28;20199;-63
2022/07/06 05:38:40;;;;;;;7.00;5.37;;;15.90;99.90;17.70;97163.00;;;;5059145;28;21268;-63
2022/07/06 05:41:29;;;;;;;6.80;5.63;;;16.00;99.90;18.30;97162.00;;;;5058274;28;20692;-63
2022/07/06 05:44:19;;;;;;;5.53;5.03;;;16.30;99.90;18.60;97158.00;;;;5056293;28;20228;-62
2022/07/06 05:50:14;;;;;;;6.30;5.67;;;16.70;99.90;19.00;97165.00;;;;5062502;28;20200;-63
2022/07/06 05:53:06;;;;;;;5.73;5.23;;;16.90;99.90;18.70;97158.00;;;;5061347;28;20208;-63
2022/07/06 05:55:59;;;;;;;5.80;4.47;;;17.10;99.90;19.00;97154.00;;;;5058056;28;20680;-63
2022/07/06 05:58:47;;;;;;;10.33;5.63;;;17.20;99.90;19.30;97149.00;;;;5064886;28;20196;-63
2022/07/06 06:01:36;;;;;;;9.20;4.13;;;17.40;99.90;19.40;97158.00;;;;5060986;28;20210;-63
2022/07/06 06:04:25;;;;;;;7.10;5.20;;;17.50;99.90;19.70;97171.00;;;;5058675;28;20325;-63
2022/07/06 06:07:14;;;;;;;5.17;4.10;;;17.70;99.90;19.70;97165.00;;;;5060578;28;20204;-63
2022/07/06 06:10:06;;;;;;;5.03;4.50;;;17.80;99.90;19.60;97163.00;;;;5064159;28;20220;-63
2022/07/06 06:12:55;;;;;;;4.17;3.83;;;17.90;99.90;19.50;97160.00;;;;5057836;28;20208;-64
2022/07/06 06:15:44;;;;;;;5.03;4.50;;;18.00;99.90;19.80;97172.00;;;;5048718;28;20243;-63
2022/07/06 06:18:33;;;;;;;5.87;3.80;;;18.10;99.90;20.30;97166.00;;;;5050634;28;20193;-63
2022/07/06 06:21:25;;;;;;;6.60;4.33;;;18.30;99.90;20.60;97167.00;;;;5050280;28;20234;-63
2022/07/06 06:24:13;;;;;;;7.00;3.73;;;18.50;99.90;20.50;97164.00;;;;5049290;28;20231;-63
2022/07/06 06:27:04;;;;;;;4.87;4.40;;;18.70;99.90;20.70;97157.00;;;;5064210;28;20209;-63
2022/07/06 06:29:53;;;;;;;6.33;3.80;;;18.70;99.90;20.90;97172.00;;;;5061032;28;20228;-63
2022/07/06 06:32:42;;;;;;;4.63;4.23;;;18.90;99.90;21.10;97169.00;;;;5063997;28;20199;-63
2022/07/06 06:35:31;;;;;;;4.40;3.80;;;19.10;99.90;21.20;97169.00;;;;5061079;28;20695;-63
2022/07/06 06:38:21;;;;;;;7.20;3.67;;;19.20;99.90;21.40;97169.00;;;;5058616;28;20220;-63
2022/07/06 06:41:11;;;;;;;4.13;3.77;;;19.40;99.90;21.60;97170.00;;;;5065587;28;20272;-63
2022/07/06 06:44:01;;;;;;;4.03;3.10;;;19.60;99.90;21.60;97164.00;;;;5046699;28;20727;-62
2022/07/06 06:46:50;;;;;;;3.77;3.47;;;19.70;99.90;21.70;97174.00;;;;5048661;28;20193;-63
2022/07/06 06:49:39;;;;;;;5.07;3.73;;;19.80;99.90;22.00;97153.00;;;;5047963;28;20227;-63
2022/07/06 06:52:29;;;;;;;6.73;4.03;;;20.00;99.90;22.40;97165.00;;;;5048710;28;20695;-63
2022/07/06 06:55:27;;;;;;;4.57;3.47;;;20.20;99.90;22.60;97160.00;;;;5048828;28;20224;-63
2022/07/06 06:58:15;;;;;;;3.63;3.33;;;20.40;99.90;22.90;97162.00;;;;5054121;28;20204;-63
2022/07/06 07:01:06;;;;;;;9.70;3.70;;;20.60;99.90;23.00;97159.00;;;;5062635;28;20212;-63
2022/07/06 07:03:55;;;;;;;4.20;3.23;;;20.80;99.90;22.60;97160.00;;;;5061009;28;20224;-65
2022/07/06 07:06:43;;;;;;;5.07;3.23;;;20.90;99.90;22.80;97154.00;;;;5067994;28;20207;-63
2022/07/06 07:09:32;;;;;;;7.33;2.73;;;20.90;99.90;23.30;97161.00;;;;5067384;28;20231;-63
2022/07/06 07:12:21;;;;;;;8.90;3.07;;;21.10;99.90;23.30;97160.00;;;;5048789;28;20209;-61
2022/07/06 07:15:10;;;;;;;6.67;2.90;;;21.30;99.90;23.50;97158.00;;;;5063762;28;20223;-62
2022/07/06 07:18:00;;;;;;;5.00;3.13;;;21.40;99.90;23.90;97163.00;;;;5063309;28;20212;-62
2022/07/06 07:20:49;;;;;;;5.90;2.97;;;21.60;99.90;24.10;97157.00;;;;5060310;28;20211;-62
2022/07/06 07:23:38;;;;;;;2.43;2.23;;;21.80;99.90;24.20;97158.00;;;;5062371;28;20216;-61
2022/07/06 07:26:27;;;;;;;3.80;3.43;;;22.00;99.90;24.00;97155.00;;;;5053383;28;20682;-60
2022/07/06 07:29:15;;;;;;;3.63;2.47;;;22.10;99.90;24.20;97159.00;;;;5057364;28;20224;-61
2022/07/06 07:32:05;;;;;;;3.20;2.57;;;22.20;99.90;24.50;97154.00;;;;5061395;28;20208;-61
2022/07/06 07:34:55;;;;;;;2.93;2.73;;;22.30;99.90;24.50;97153.00;;;;5050987;28;20228;-61
2022/07/06 07:37:44;;;;;;;5.10;2.70;;;22.40;99.90;24.80;97152.00;;;;5066720;28;20557;-61
2022/07/06 07:40:33;;;;;;;2.73;2.50;;;22.60;99.90;25.20;97153.00;;;;5066467;28;20207;-61
2022/07/06 07:43:22;;;;;;;3.60;3.10;;;22.80;99.90;25.50;97149.00;;;;5054065;28;20218;-61
2022/07/06 07:46:11;;;;;;;3.37;3.03;;;23.00;99.90;25.40;97136.00;;;;5066376;28;20207;-60
2022/07/06 07:48:59;;;;;;;3.17;2.87;;;23.20;99.90;26.00;97146.00;;;;5045682;28;20590;-61
2022/07/06 07:51:50;;;;;;;6.33;2.77;;;23.50;99.90;25.50;97164.00;;;;5055867;28;20671;-62
2022/07/06 07:54:38;;;;;;;5.53;2.67;;;23.60;99.90;25.30;97158.00;;;;5054229;28;20597;-61
2022/07/06 07:57:29;;;;;;;5.80;3.00;;;23.50;99.90;25.40;97157.00;;;;5066673;28;20694;-61
2022/07/06 08:00:21;;;;;;;2.87;2.67;;;23.50;99.90;25.40;97162.00;;;;5068384;28;20208;-61
2022/07/06 08:03:13;;;;;;;3.30;2.67;;;23.50;99.90;25.20;97171.00;;;;5047263;28;20204;-61
2022/07/06 08:06:02;;;;;;;3.27;2.80;;;23.50;99.90;25.70;97168.00;;;;5047670;28;20204;-60
2022/07/06 08:08:52;;;;;;;2.70;2.50;;;23.60;99.90;25.90;97148.00;;;;5047207;28;20216;-61
2022/07/06 08:11:41;;;;;;;4.50;3.10;;;23.70;99.90;26.50;97146.00;;;;5049563;28;20208;-61
2022/07/06 08:14:29;;;;;;;4.37;2.60;;;23.90;99.90;27.00;97145.00;;;;5047033;28;20223;-61
2022/07/06 08:17:18;;;;;;;4.53;2.13;;;24.30;99.90;27.10;97142.00;;;;5047637;28;20213;-61
2022/07/06 08:20:09;;;;;;;2.33;1.90;;;24.60;99.90;27.50;97132.00;;;;5053388;28;20212;-61
2022/07/06 08:22:57;;;;;;;2.70;2.00;;;24.80;99.90;27.80;97140.00;;;;5047333;28;20209;-61
2022/07/06 08:25:47;;;;;;;2.93;1.83;;;25.20;99.90;27.90;97137.00;;;;5057325;28;20226;-62
2022/07/06 08:28:36;;;;;;;2.43;1.70;;;25.40;99.90;27.80;97135.00;;;;5057211;28;20559;-61
2022/07/06 08:31:27;;;;;;;2.03;1.63;;;25.50;99.90;27.90;97141.00;;;;5038761;28;20233;-61
2022/07/06 08:34:35;;;;;;;3.07;1.73;;;25.70;99.90;27.60;97139.00;;;;5046782;28;20712;-61
2022/07/06 08:37:24;;;;;;;3.30;1.80;;;25.80;98.30;27.80;97134.00;;;;5047010;28;20237;-62
2022/07/06 08:40:13;;;;;;;1.63;1.37;;;25.80;97.00;27.40;97133.00;;;;5046979;28;20200;-62
2022/07/06 08:43:03;;;;;;;1.80;1.40;;;25.80;96.00;26.70;97128.00;;;;5050980;28;20201;-65
2022/07/06 08:45:55;;;;;;;1.97;1.73;;;25.60;94.50;27.20;97133.00;;;;5062809;28;20211;-63
2022/07/06 08:48:44;;;;;;;2.83;1.30;;;25.50;92.80;27.00;97160.00;;;;5068238;28;20210;-63
2022/07/06 08:51:33;;;;;;;4.70;1.67;;;25.40;93.10;26.40;97141.00;;;;5057331;28;20230;-62
2022/07/06 08:54:23;;;;;;;3.50;1.70;;;25.10;91.30;26.70;97133.00;;;;5069726;28;20222;-61
2022/07/06 08:57:12;;;;;;;2.47;1.37;;;25.00;91.40;27.30;97143.00;;;;5070973;28;20202;-62
2022/07/06 09:00:03;;;;;;;2.47;1.20;;;25.20;85.70;28.00;97133.00;;;;5062838;28;20205;-62
2022/07/06 09:02:56;;;;;;;3.37;1.60;;;25.40;81.00;28.00;97133.00;;;;5067434;28;20216;-62
2022/07/06 09:05:47;;;;;;;1.47;1.33;;;25.60;77.20;28.80;97133.00;;;;5069909;28;20702;-61
2022/07/06 09:08:39;;;;;;;3.00;1.30;;;25.90;78.90;28.50;97131.00;;;;5067959;28;20682;-64
2022/07/06 09:11:28;;;;;;;5.40;2.30;;;26.20;78.80;28.40;97163.00;;;;5050626;28;20220;-65
2022/07/06 09:14:18;;;;;;;4.10;1.30;;;26.30;78.50;29.00;97142.00;;;;5050001;28;20705;-64
2022/07/06 09:17:09;;;;;;;1.93;1.40;;;26.50;79.40;28.60;97133.00;;;;5056674;28;20236;-61
2022/07/06 09:20:01;;;;;;;0.90;0.87;;;26.80;79.70;27.20;97139.00;;;;5065228;28;20208;-64
2022/07/06 09:22:49;;;;;;;2.73;1.57;;;26.50;65.00;26.60;97137.00;;;;5063738;28;20208;-63
2022/07/06 09:25:38;;;;;;;0.97;0.97;;;26.00;63.70;26.50;97129.00;;;;5065239;28;20218;-61
2022/07/06 09:28:42;;;;;;;1.20;1.10;;;25.70;63.30;27.40;97158.00;;;;5056123;28;20207;-62
2022/07/06 09:31:31;;;;;;;1.17;1.07;;;25.70;60.00;26.40;97167.00;;;;5065752;28;20222;-64
2022/07/06 09:34:21;;;;;;;0.90;0.90;;;25.50;59.00;26.30;97173.00;;;;5069948;28;20227;-63
2022/07/06 09:37:10;;;;;;;0.83;0.83;;;25.20;59.50;27.40;97148.00;;;;5069888;28;20201;-63
2022/07/06 09:39:59;;;;;;;1.90;1.37;;;25.40;63.30;28.70;97142.00;;;;5064543;28;20609;-63
2022/07/06 09:42:48;;;;;;;2.10;1.33;;;25.80;67.10;29.10;97130.00;;;;5063458;28;20210;-62
2022/07/06 09:45:39;;;;;;;1.37;1.10;;;26.30;69.90;28.90;97164.00;;;;5060753;28;20231;-62
2022/07/06 09:48:29;;;;;;;1.87;1.30;;;26.50;65.90;28.10;97131.00;;;;5055871;28;20706;-63
2022/07/06 09:51:21;;;;;;;2.10;1.40;;;26.50;57.60;29.80;97130.00;;;;5061910;28;20223;-62
2022/07/06 09:54:14;;;;;;;0.87;0.83;;;26.90;60.70;28.70;97088.00;;;;5065482;28;20215;-65
2022/07/06 09:57:05;;;;;;;1.63;1.17;;;27.50;58.20;28.90;97122.00;;;;5063170;28;20201;-63
2022/07/06 09:59:56;;;;;;;2.40;0.97;;;27.40;56.50;29.80;97127.00;;;;5059805;28;20285;-64
2022/07/06 10:02:44;;;;;;;6.73;1.07;;;27.60;56.20;28.80;97166.00;;;;5048079;28;20211;-62
2022/07/06 10:05:34;;;;;;;1.10;0.97;;;27.40;54.50;29.80;97118.00;;;;5050143;28;20230;-63
2022/07/06 10:08:24;;;;;;;0.70;0.70;;;27.60;56.90;30.20;97135.00;;;;5049327;28;20210;-62
2022/07/06 10:11:14;;;;;;;1.10;1.00;;;27.80;59.40;30.30;97157.00;;;;5063186;28;20223;-64
2022/07/06 10:14:06;;;;;;;1.00;0.80;;;27.90;59.60;30.20;97112.00;;;;5063123;28;20223;-64
2022/07/06 10:16:58;;;;;;;2.03;1.00;;;27.90;58.80;30.90;97117.00;;;;5066075;28;20257;-63
2022/07/06 10:19:49;;;;;;;2.37;1.40;;;28.00;58.90;30.70;97120.00;;;;5061516;28;20218;-64
2022/07/06 10:22:40;;;;;;;1.00;0.80;;;28.50;57.90;30.70;97114.00;;;;5062373;28;20573;-64
2022/07/06 10:25:30;;;;;;;1.53;0.80;;;28.60;56.00;30.50;97117.00;;;;5052729;28;20236;-64
2022/07/06 10:28:21;;;;;;;2.13;1.00;;;28.70;55.50;30.60;97164.00;;;;5061440;28;20211;-64
2022/07/06 10:31:10;;;;;;;1.77;0.93;;;28.70;56.00;30.20;97111.00;;;;5048974;28;20223;-64
2022/07/06 10:34:02;;;;;;;1.40;0.90;;;28.40;55.10;29.60;97161.00;;;;5058710;28;20233;-64
2022/07/06 10:36:54;;;;;;;1.00;0.90;;;28.50;52.30;29.70;97159.00;;;;5068838;28;20661;-64
2022/07/06 10:42:59;;;;;;;1.90;0.90;;;27.80;53.20;28.30;97149.00;;;;5048271;28;20209;-64
2022/07/06 10:45:53;;;;;;;1.50;1.00;;;27.50;53.40;29.20;97102.00;;;;5048897;28;20230;-63
2022/07/06 10:48:44;;;;;;;1.13;1.03;;;27.60;53.60;30.00;97098.00;;;;5051862;28;20502;-65
2022/07/06 10:51:33;;;;;;;1.20;0.80;;;27.80;53.00;29.90;97166.00;;;;5048825;28;20230;-65
2022/07/06 10:54:22;;;;;;;1.10;1.00;;;27.70;55.10;29.50;97156.00;;;;5064340;28;20231;-64
2022/07/06 10:57:14;;;;;;;1.53;0.83;;;27.60;56.20;28.60;97104.00;;;;5063055;28;20205;-63
2022/07/06 11:00:08;;;;;;;0.70;0.70;;;27.40;53.20;30.10;97082.00;;;;5058047;28;20209;-67
2022/07/06 11:02:57;;;;;;;1.00;0.90;;;27.80;56.70;31.30;97116.00;;;;5058876;28;20197;-64
2022/07/06 11:05:46;;;;;;;1.10;1.00;;;28.20;56.00;30.70;97096.00;;;;5053757;28;20231;-63
2022/07/06 11:08:57;;;;;;;1.17;0.80;;;28.50;54.80;31.20;97093.00;;;;5044575;28;20283;-64
2022/07/06 11:11:48;;;;;;;1.33;0.63;;;28.80;53.50;32.00;97096.00;;;;5062273;28;20233;-64
2022/07/06 11:14:37;;;;;;;1.80;0.90;;;29.20;54.50;31.90;97087.00;;;;5063899;28;20219;-64
2022/07/06 11:17:27;;;;;;;1.80;0.90;;;29.50;52.40;32.20;97092.00;;;;5059612;28;20237;-64
2022/07/06 11:20:20;;;;;;;3.27;0.83;;;29.80;53.80;32.70;97081.00;;;;5061252;28;20199;-64
2022/07/06 11:23:09;;;;;;;1.23;1.00;;;30.00;54.60;32.90;97077.00;;;;5057876;28;20211;-63
2022/07/06 11:25:59;;;;;;;3.72;1.23;;;30.40;53.20;31.30;97079.00;;;;5048855;28;20211;-64
2022/07/06 11:28:49;;;;;;;3.60;0.90;;;30.20;51.00;31.90;97078.00;;;;5051931;28;20677;-64
2022/07/06 11:31:41;;;;;;;0.83;0.83;;;30.10;51.90;30.20;97070.00;;;;5047110;28;20216;-65
2022/07/06 11:34:32;;;;;;;0.73;0.60;;;30.00;50.50;29.80;97078.00;;;;5059490;28;20231;-66
2022/07/06 11:37:23;;;;;;;1.10;1.00;;;29.50;50.20;30.20;97078.00;;;;5066283;28;20688;-65
2022/07/06 11:40:13;;;;;;;3.47;0.93;;;29.30;48.70;30.90;97087.00;;;;5048324;28;20678;-62
2022/07/06 11:43:02;;;;;;;1.00;0.90;;;29.10;49.10;30.20;97071.00;;;;5055567;28;20228;-63
2022/07/06 11:45:51;;;;;;;0.70;0.70;;;29.10;48.30;30.90;97137.00;;;;5061846;28;20234;-63
2022/07/06 11:48:47;;;;;;;1.80;1.00;;;29.00;48.00;30.60;97071.00;;;;5064554;28;20198;-64
2022/07/06 11:51:39;;;;;;;1.00;0.80;;;29.00;48.60;30.70;97060.00;;;;5053756;28;20219;-63
2022/07/06 11:54:28;;;;;;;1.90;1.10;;;29.20;48.80;29.90;97056.00;;;;5065031;28;20222;-63
2022/07/06 11:57:18;;;;;;;2.70;1.30;;;29.00;51.70;31.30;97054.00;;;;5061052;28;20221;-63
2022/07/06 12:00:08;;;;;;;0.80;0.80;;;29.20;55.50;31.60;97061.00;;;;5061791;28;20194;-63
2022/07/06 12:03:01;;;;;;;1.30;0.90;;;29.20;54.60;33.40;97059.00;;;;5054460;28;20232;-63
2022/07/06 12:05:50;;;;;;;1.10;1.00;;;29.80;57.70;33.20;97050.00;;;;5049110;28;20597;-63
2022/07/06 12:08:48;;;;;;;0.77;0.77;;;30.40;55.50;32.30;97049.00;;;;5061354;28;20336;-63
2022/07/06 12:11:39;;;;;;;3.20;1.02;;;30.70;52.30;33.90;97051.00;;;;5054565;28;20221;-63
2022/07/06 12:14:28;;;;;;;0.80;0.80;;;30.90;56.30;33.50;97045.00;;;;5060890;28;20707;-65
2022/07/06 12:17:17;;;;;;;2.47;0.90;;;31.30;54.00;34.70;97051.00;;;;5066560;28;20210;-63
2022/07/06 12:20:07;;;;;;;1.33;0.93;;;31.60;55.60;33.60;97043.00;;;;5068133;28;20635;-63
2022/07/06 12:23:03;;;;;;;2.38;1.13;;;31.70;55.60;32.00;97044.00;;;;5061425;28;20205;-63
2022/07/06 12:25:55;;;;;;;0.60;0.60;;;31.30;59.20;33.90;97041.00;;;;5056091;28;20216;-64
2022/07/06 12:28:46;;;;;;;0.73;0.73;;;31.30;63.30;33.10;97034.00;;;;5067145;28;20213;-64
2022/07/06 12:31:37;;;;;;;1.33;0.63;;;31.20;59.10;33.30;97030.00;;;;5064676;28;20226;-64
2022/07/06 12:34:28;;;;;;;1.35;1.00;;;31.40;44.60;31.90;97041.00;;;;5056172;28;20224;-64
2022/07/06 12:37:16;;;;;;;1.35;1.00;;;31.00;45.60;32.10;97031.00;;;;5056301;28;20394;-64
2022/07/06 12:40:14;;;;;;;2.67;0.68;;;31.00;44.80;32.60;97027.00;;;;5074713;28;20722;-64